createdAt,value
2018-06-22T00:04:18.622Z,55.40
2018-06-22T00:09:21.646Z,56.00
2018-06-22T00:14:24.643Z,56.30
2018-06-22T00:19:27.612Z,56.70
2018-06-22T00:24:30.620Z,57.30
2018-06-22T00:29:33.613Z,58.00
2018-06-22T00:34:36.570Z,57.30
2018-06-22T00:39:39.635Z,57.40
2018-06-22T00:44:42.572Z,56.40
2018-06-22T00:49:45.573Z,55.80
2018-06-22T00:54:48.519Z,56.00
2018-06-22T00:59:51.488Z,55.50
2018-06-22T01:04:54.480Z,55.70
2018-06-22T01:09:57.735Z,55.70
2018-06-22T01:15:00.697Z,56.20
2018-06-22T01:25:06.600Z,56.60
2018-06-22T01:30:09.531Z,56.30
2018-06-22T01:35:12.515Z,57.00
2018-06-22T01:40:15.545Z,57.40
2018-06-22T01:45:18.579Z,58.10
2018-06-22T01:50:21.592Z,58.40
2018-06-22T01:55:25.184Z,58.60
2018-06-22T02:00:29.015Z,59.10
2018-06-22T02:05:32.161Z,59.20
2018-06-22T02:10:35.210Z,60.20
2018-06-22T02:15:38.210Z,59.40
2018-06-22T02:20:41.188Z,59.10
2018-06-22T02:25:44.164Z,59.20
2018-06-22T02:30:47.142Z,59.50
2018-06-22T02:35:50.454Z,59.70
2018-06-22T02:40:53.808Z,59.70
2018-06-22T02:45:56.852Z,59.60
2018-06-22T02:50:59.999Z,59.40
2018-06-22T02:56:02.999Z,59.10
2018-06-22T03:01:06.932Z,59.00
2018-06-22T03:06:11.225Z,59.20
2018-06-22T03:11:14.192Z,59.30
2018-06-22T03:16:17.188Z,59.30
2018-06-22T03:21:20.176Z,60.00
2018-06-22T03:26:23.220Z,60.30
2018-06-22T03:31:26.220Z,60.20
2018-06-22T03:36:29.201Z,60.00
2018-06-22T03:41:32.179Z,60.10
2018-06-22T03:46:35.443Z,59.90
2018-06-22T03:51:38.416Z,59.90
2018-06-22T03:56:41.444Z,59.70
2018-06-22T04:01:44.400Z,59.90
2018-06-22T04:06:47.415Z,59.80
2018-06-22T04:11:50.689Z,58.60
2018-06-22T04:16:53.707Z,57.20
2018-06-22T04:21:56.717Z,54.90
2018-06-22T04:26:59.697Z,49.90
2018-06-22T04:32:02.715Z,45.40
2018-06-22T04:37:05.783Z,42.90
2018-06-22T04:42:09.052Z,42.10
2018-06-22T04:47:12.065Z,40.30
2018-06-22T04:52:15.069Z,36.70
2018-06-22T04:57:18.064Z,35.00
2018-06-22T05:02:21.136Z,31.90
2018-06-22T05:07:24.127Z,31.50
2018-06-22T05:12:27.344Z,30.20
2018-06-22T05:17:30.870Z,29.60
2018-06-22T05:22:33.861Z,30.00
2018-06-22T05:27:37.371Z,31.00
2018-06-22T05:32:40.349Z,31.10
2018-06-22T05:37:43.355Z,32.80
2018-06-22T05:42:46.381Z,31.50
2018-06-22T05:47:49.357Z,32.90
2018-06-22T05:52:52.372Z,34.10
2018-06-22T05:57:55.382Z,35.00
2018-06-22T06:02:58.420Z,33.00
2018-06-22T06:08:01.450Z,32.90
2018-06-22T06:13:04.694Z,31.40
2018-06-22T06:18:07.685Z,30.20
2018-06-22T06:23:10.740Z,33.90
2018-06-22T06:28:13.767Z,40.10
2018-06-22T06:33:16.816Z,43.70
2018-06-22T06:38:19.817Z,45.40
2018-06-22T06:43:22.784Z,43.40
2018-06-22T06:48:25.797Z,43.90
2018-06-22T06:53:28.911Z,43.10
2018-06-22T06:58:31.924Z,42.70
2018-06-22T07:03:34.927Z,42.30
2018-06-22T07:08:38.133Z,41.20
2018-06-22T07:13:41.236Z,41.20
2018-06-22T07:18:44.294Z,40.60
2018-06-22T07:23:47.238Z,40.00
2018-06-22T07:28:50.309Z,41.10
2018-06-22T07:33:53.378Z,42.60
2018-06-22T07:38:56.411Z,42.10
2018-06-22T07:43:59.500Z,43.20
2018-06-22T07:49:02.440Z,44.40
2018-06-22T07:54:05.521Z,44.70
2018-06-22T07:59:08.717Z,44.50
2018-06-22T08:04:11.791Z,43.70
2018-06-22T08:09:14.836Z,43.70
2018-06-22T08:14:17.813Z,43.50
2018-06-22T08:19:21.348Z,43.50
2018-06-22T08:24:24.812Z,44.00
2018-06-22T08:29:27.865Z,43.70
2018-06-22T08:34:31.028Z,43.60
2018-06-22T08:44:37.198Z,44.20
2018-06-22T08:49:40.232Z,44.60
2018-06-22T08:54:43.287Z,45.40
2018-06-22T08:59:46.308Z,45.80
2018-06-22T09:04:49.369Z,45.40
2018-06-22T09:14:55.344Z,45.00
2018-06-22T09:19:59.111Z,44.30
2018-06-22T09:25:02.154Z,43.70
2018-06-22T09:30:05.488Z,43.90
2018-06-22T09:35:08.598Z,44.10
2018-06-22T09:40:11.628Z,43.20
2018-06-22T09:45:14.667Z,44.30
2018-06-22T09:50:17.814Z,43.50
2018-06-22T09:55:20.968Z,43.10
2018-06-22T10:00:24.012Z,43.70
2018-06-22T10:05:27.048Z,44.80
2018-06-22T10:10:30.037Z,43.60
2018-06-22T10:15:33.166Z,44.40
2018-06-22T10:20:36.175Z,43.30
2018-06-22T10:25:39.520Z,44.10
2018-06-22T10:30:42.536Z,43.80
2018-06-22T10:35:45.575Z,43.70
2018-06-22T10:40:48.638Z,43.70
2018-06-22T10:45:51.671Z,42.40
2018-06-22T10:50:54.780Z,41.80
2018-06-22T10:55:57.881Z,40.60
2018-06-22T11:01:01.166Z,39.70
2018-06-22T11:06:04.198Z,38.80
2018-06-22T11:11:07.260Z,38.70
2018-06-22T11:16:10.300Z,41.00
2018-06-22T11:21:13.574Z,42.50
2018-06-22T11:26:16.901Z,41.20
2018-06-22T11:31:20.313Z,39.60
2018-06-22T11:36:23.399Z,40.10
2018-06-22T11:41:26.518Z,39.40
2018-06-22T11:46:29.516Z,38.10
2018-06-22T11:51:32.592Z,38.40
2018-06-22T11:56:35.636Z,36.70
2018-06-22T12:01:38.671Z,37.30
2018-06-22T12:06:41.697Z,36.40
2018-06-22T12:16:47.755Z,39.00
2018-06-22T12:21:50.896Z,38.10
2018-06-22T12:26:53.917Z,39.90
2018-06-22T12:31:57.907Z,39.20
2018-06-22T12:37:00.944Z,38.40
2018-06-22T12:42:04.071Z,38.80
2018-06-22T12:47:07.159Z,38.30
2018-06-22T12:52:10.208Z,39.10
2018-06-22T12:57:13.284Z,37.60
2018-06-22T13:02:16.450Z,37.90
2018-06-22T13:07:19.513Z,38.00
2018-06-22T13:12:22.638Z,40.60
2018-06-22T13:17:25.898Z,34.30
2018-06-22T13:27:32.000Z,36.00
2018-06-22T13:32:35.045Z,35.40
2018-06-22T13:37:38.416Z,35.50
2018-06-22T13:42:41.504Z,38.30
2018-06-22T13:47:44.547Z,35.80
2018-06-22T13:52:47.707Z,37.00
2018-06-22T13:57:50.759Z,37.00
2018-06-22T14:02:53.761Z,36.40
2018-06-22T14:07:56.880Z,36.80
2018-06-22T14:12:59.992Z,38.70
2018-06-22T14:18:03.220Z,38.30
2018-06-22T14:23:06.231Z,36.10
2018-06-22T14:28:09.523Z,36.40
2018-06-22T14:33:12.685Z,36.20
2018-06-22T14:38:16.059Z,36.40
2018-06-22T14:43:19.491Z,39.10
2018-06-22T14:48:22.588Z,34.80
2018-06-22T14:53:31.413Z,37.10
2018-06-22T14:58:40.042Z,32.30
2018-06-22T15:03:48.685Z,32.90
2018-06-22T15:08:51.725Z,32.90
2018-06-22T15:13:54.741Z,34.20
2018-06-22T15:18:57.973Z,33.70
2018-06-22T15:24:01.019Z,32.80
2018-06-22T15:29:04.356Z,33.00
2018-06-22T15:34:13.152Z,33.90
2018-06-22T15:39:21.973Z,35.10
2018-06-22T15:44:32.616Z,34.50
2018-06-22T15:49:41.761Z,33.40
2018-06-22T15:54:50.533Z,32.80
2018-06-22T15:59:53.651Z,33.70
2018-06-22T16:04:56.866Z,33.40
2018-06-22T16:10:01.125Z,34.60
2018-06-22T16:15:13.771Z,34.90
2018-06-22T16:20:22.548Z,37.20
2018-06-22T16:25:31.308Z,40.20
2018-06-22T16:30:34.343Z,39.00
2018-06-22T16:35:37.375Z,38.60
2018-06-22T16:40:40.419Z,38.90
2018-06-22T16:45:43.542Z,38.60
2018-06-22T16:50:46.773Z,39.40
2018-06-22T16:55:49.771Z,38.50
2018-06-22T17:00:52.900Z,35.90
2018-06-22T17:05:56.225Z,36.40
2018-06-22T17:11:04.832Z,37.60
2018-06-22T17:16:13.708Z,37.50
2018-06-22T17:21:17.041Z,40.00
2018-06-22T17:26:20.316Z,41.20
2018-06-22T17:31:23.618Z,41.30
2018-06-22T17:36:26.711Z,40.90
2018-06-22T17:41:29.910Z,41.20
2018-06-22T17:46:33.105Z,40.30
2018-06-22T17:51:36.141Z,41.90
2018-06-22T17:56:39.553Z,41.80
2018-06-22T18:01:48.425Z,42.60
2018-06-22T18:06:57.201Z,42.10
2018-06-22T18:12:06.090Z,42.20
2018-06-22T18:22:12.393Z,42.30
2018-06-22T18:27:15.531Z,42.30
2018-06-22T18:32:18.624Z,41.90
2018-06-22T18:37:21.863Z,41.60
2018-06-22T18:42:24.875Z,41.40
2018-06-22T18:47:27.930Z,43.10
2018-06-22T18:52:36.771Z,42.10
2018-06-22T18:57:45.527Z,42.40
2018-06-22T19:02:54.443Z,43.20
2018-06-22T19:07:57.560Z,42.80
2018-06-22T19:13:00.750Z,43.40
2018-06-22T19:18:03.809Z,44.40
2018-06-22T19:23:06.956Z,43.40
2018-06-22T19:28:10.045Z,43.20
2018-06-22T19:33:13.141Z,43.90
2018-06-22T19:38:16.274Z,44.60
2018-06-22T19:43:25.094Z,45.90
2018-06-22T19:48:33.944Z,45.80
2018-06-22T19:53:42.627Z,46.50
2018-06-22T19:58:45.888Z,48.10
2018-06-22T20:03:49.119Z,48.10
2018-06-22T20:08:52.496Z,48.20
2018-06-22T20:13:55.846Z,48.50
2018-06-22T20:18:59.147Z,48.70
2018-06-22T20:24:02.372Z,49.20
2018-06-22T20:29:05.532Z,49.60
2018-06-22T20:34:14.553Z,49.70
2018-06-22T20:39:23.335Z,50.40
2018-06-22T20:44:32.315Z,50.80
2018-06-22T20:49:41.142Z,51.20
2018-06-22T20:54:44.354Z,51.70
2018-06-22T20:59:47.541Z,52.00
2018-06-22T21:04:50.770Z,52.40
2018-06-22T21:09:54.071Z,52.70
2018-06-22T21:14:57.073Z,53.90
2018-06-22T21:20:00.291Z,53.90
2018-06-22T21:25:03.741Z,54.00
2018-06-22T21:30:12.358Z,54.50
2018-06-22T21:35:21.039Z,54.60
2018-06-22T21:40:24.144Z,55.10
2018-06-22T21:45:27.421Z,56.50
2018-06-22T21:50:30.551Z,57.80
2018-06-22T21:55:33.564Z,58.40
2018-06-22T22:00:36.874Z,59.20
2018-06-22T22:05:40.144Z,59.10
2018-06-22T22:10:48.826Z,58.60
2018-06-22T22:15:52.910Z,58.20
2018-06-22T22:20:56.860Z,57.80
2018-06-22T22:26:01.067Z,57.70
2018-06-22T22:31:05.115Z,58.00
2018-06-22T22:36:09.136Z,58.00
2018-06-22T22:41:13.119Z,58.00
2018-06-22T22:51:20.425Z,58.70
2018-06-22T22:56:24.311Z,58.50
2018-06-22T23:01:28.076Z,60.70
2018-06-22T23:06:32.516Z,61.80
2018-06-22T23:11:36.379Z,62.20
2018-06-22T23:16:40.273Z,63.50
2018-06-22T23:21:43.977Z,63.10
2018-06-22T23:26:48.111Z,63.10
2018-06-22T23:31:52.417Z,63.60
2018-06-22T23:36:56.367Z,63.80
2018-06-22T23:42:00.365Z,63.90
2018-06-22T23:47:04.312Z,63.40
2018-06-22T23:52:08.149Z,63.70
2018-06-22T23:57:12.158Z,63.30
